Terminal Aerodrome Forecast
Issued by NWS Glasgow, MT

Home | Current Version | Previous Version | Text Only | Print | Product List | Glossary On
Versions: 1 2 3 4 5 6 7 8 9 10 11 12 13 14
000
FTUS45 KGGW 250700 AAA
TAFGGW
TAF AMD
KGGW 250729Z 2507/2606 33010KT P6SM OVC022
     FM251200 33013KT P6SM BKN020
     FM251800 33010KT P6SM FEW200
     FM260000 VRB04KT P6SM SKC=

USA.gov is the U.S. government's official web portal to all federal, state and local government web resources and services.